Time;durP1;ratioP1;P1;durP2;ratioP2;P2;SDS_P1;SDS_P2;PMS_P1;PMS_P2;Temp;Humidity;BMP_temperature;BMP_pressure;BME280_temperature;BME280_humidity;BME280_pressure;Samples;Min_cycle;Max_cycle;Signal;HPM_P1;HPM_P2
2023/06/05 00:01:35;;;;;;;6.95;5.60;;;14.90;55.70;;;;;;5075029;28;20025;-75
2023/06/05 00:04:01;;;;;;;11.48;6.07;;;14.80;56.00;;;;;;5075352;28;20024;-75
2023/06/05 00:06:26;;;;;;;6.13;5.28;;;14.80;55.60;;;;;;5075122;28;20492;-76
2023/06/05 00:08:52;;;;;;;8.10;5.78;;;14.80;56.10;;;;;;5076320;28;20420;-76
2023/06/05 00:11:17;;;;;;;7.20;5.53;;;14.80;56.00;;;;;;5075314;28;20025;-73
2023/06/05 00:13:43;;;;;;;8.60;5.40;;;14.70;56.20;;;;;;5075335;28;20024;-73
2023/06/05 00:16:08;;;;;;;7.60;5.75;;;14.70;56.30;;;;;;5075276;28;20408;-73
2023/06/05 00:18:34;;;;;;;8.27;5.68;;;14.60;57.20;;;;;;5074899;28;20029;-73
2023/06/05 00:21:00;;;;;;;9.30;6.47;;;14.60;57.60;;;;;;5074905;28;20028;-73
2023/06/05 00:23:25;;;;;;;6.05;5.45;;;14.60;56.90;;;;;;5074846;28;20035;-73
2023/06/05 00:25:51;;;;;;;7.47;5.60;;;14.60;56.80;;;;;;5075141;28;20021;-73
2023/06/05 00:28:17;;;;;;;6.88;6.03;;;14.60;56.80;;;;;;5074823;28;20040;-73
2023/06/05 00:30:43;;;;;;;7.18;5.78;;;14.60;56.80;;;;;;5074955;28;20024;-73
2023/06/05 00:33:08;;;;;;;8.63;5.65;;;14.50;56.90;;;;;;5074680;28;20359;-73
2023/06/05 00:35:34;;;;;;;7.40;5.43;;;14.40;57.00;;;;;;5074870;28;20417;-73
2023/06/05 00:37:59;;;;;;;6.75;5.40;;;14.30;57.60;;;;;;5076078;28;20061;-72
2023/06/05 00:40:25;;;;;;;7.75;5.68;;;14.30;57.70;;;;;;5074902;28;20032;-73
2023/06/05 00:42:51;;;;;;;8.10;5.75;;;14.30;57.70;;;;;;5074872;28;20021;-73
2023/06/05 00:45:16;;;;;;;6.72;5.80;;;14.30;57.80;;;;;;5074714;28;20024;-73
2023/06/05 00:47:42;;;;;;;8.73;6.65;;;14.20;57.90;;;;;;5074522;28;20028;-73
2023/06/05 00:50:11;;;;;;;8.27;5.65;;;14.10;57.80;;;;;;5075418;28;20025;-73
2023/06/05 00:52:38;;;;;;;8.80;6.38;;;14.00;58.10;;;;;;5074609;28;20056;-73
2023/06/05 00:55:04;;;;;;;9.80;6.35;;;14.10;58.30;;;;;;5075652;28;20017;-73
2023/06/05 00:57:29;;;;;;;9.02;5.93;;;14.00;58.40;;;;;;5074425;28;20365;-73
2023/06/05 00:59:55;;;;;;;8.65;5.80;;;13.90;58.60;;;;;;5074373;28;20037;-73
2023/06/05 01:02:21;;;;;;;7.30;5.82;;;13.90;58.70;;;;;;5074262;28;20592;-73
2023/06/05 01:04:46;;;;;;;6.93;5.22;;;13.90;58.60;;;;;;5075262;28;20104;-73
2023/06/05 01:07:16;;;;;;;6.82;5.88;;;13.80;58.80;;;;;;5074137;28;20021;-73
2023/06/05 01:09:42;;;;;;;8.90;6.05;;;13.70;59.30;;;;;;5075087;28;20021;-73
2023/06/05 01:12:36;;;;;;;9.10;5.82;;;13.70;59.10;;;;;;5073834;28;20107;-74
2023/06/05 01:15:02;;;;;;;8.40;5.90;;;13.70;59.30;;;;;;5074471;28;20040;-75
2023/06/05 01:17:30;;;;;;;9.18;6.47;;;13.60;59.30;;;;;;5073754;28;20020;-74
2023/06/05 01:19:58;;;;;;;7.88;5.72;;;13.60;59.40;;;;;;5074130;28;20033;-74
2023/06/05 01:22:26;;;;;;;6.53;5.22;;;13.60;59.30;;;;;;5074101;28;20021;-73
2023/06/05 01:24:52;;;;;;;7.60;5.47;;;13.70;59.30;;;;;;5074059;28;20444;-74
2023/06/05 01:27:26;;;;;;;7.43;5.78;;;13.70;59.00;;;;;;5074138;28;20094;-74
2023/06/05 01:30:16;;;;;;;8.23;5.97;;;13.70;58.80;;;;;;5074161;28;20083;-74
2023/06/05 01:32:53;;;;;;;6.45;5.65;;;13.70;59.00;;;;;;5074174;28;20025;-75
2023/06/05 01:35:20;;;;;;;8.68;5.82;;;13.60;59.00;;;;;;5073966;28;20362;-74
2023/06/05 01:37:48;;;;;;;7.68;5.75;;;13.50;59.50;;;;;;5073572;28;20480;-73
2023/06/05 01:40:16;;;;;;;10.13;6.85;;;13.50;59.80;;;;;;5074909;28;20407;-73
2023/06/05 01:42:42;;;;;;;7.93;5.75;;;13.60;59.40;;;;;;5073469;28;20020;-74
2023/06/05 01:45:09;;;;;;;6.88;5.30;;;13.50;59.60;;;;;;5073665;28;20078;-73
2023/06/05 01:47:39;;;;;;;7.93;5.60;;;13.50;59.70;;;;;;5073578;28;20025;-73
2023/06/05 01:50:06;;;;;;;6.25;5.57;;;13.50;59.60;;;;;;5073494;28;20134;-73
2023/06/05 01:52:33;;;;;;;8.68;5.85;;;13.60;59.40;;;;;;5073406;28;20024;-73
2023/06/05 01:54:59;;;;;;;6.72;5.82;;;13.60;59.30;;;;;;5073250;28;20050;-74
2023/06/05 01:57:27;;;;;;;6.72;5.45;;;13.50;59.30;;;;;;5073513;28;20123;-73
2023/06/05 01:59:53;;;;;;;10.23;6.03;;;13.50;59.40;;;;;;5072956;28;20044;-73
2023/06/05 02:02:18;;;;;;;7.93;5.80;;;13.40;59.60;;;;;;5073358;28;20020;-73
2023/06/05 02:04:47;;;;;;;6.45;5.70;;;13.30;60.10;;;;;;5073308;28;20029;-74
2023/06/05 02:07:14;;;;;;;8.13;5.97;;;13.20;60.20;;;;;;5074415;28;20042;-74
2023/06/05 02:09:41;;;;;;;6.30;5.70;;;13.10;60.70;;;;;;5072916;28;20071;-74
2023/06/05 02:12:07;;;;;;;7.55;5.68;;;13.10;60.70;;;;;;5072946;28;20028;-73
2023/06/05 02:14:35;;;;;;;8.35;5.65;;;13.10;60.60;;;;;;5073119;28;20031;-73
2023/06/05 02:17:04;;;;;;;6.82;5.53;;;13.00;60.50;;;;;;5074038;28;20459;-73
2023/06/05 02:19:30;;;;;;;9.40;5.60;;;13.10;60.60;;;;;;5072252;28;20044;-73
2023/06/05 02:21:56;;;;;;;7.03;5.65;;;13.00;60.70;;;;;;5073631;28;20024;-72
2023/06/05 02:24:22;;;;;;;11.68;6.03;;;13.10;60.90;;;;;;5071835;28;20056;-73
2023/06/05 02:26:48;;;;;;;6.57;5.45;;;13.20;60.90;;;;;;5072808;28;20074;-73
2023/06/05 02:29:13;;;;;;;8.10;5.30;;;13.20;60.80;;;;;;5073758;28;20024;-73
2023/06/05 02:31:39;;;;;;;8.30;6.22;;;13.20;60.70;;;;;;5072673;28;20420;-73
2023/06/05 02:34:05;;;;;;;9.10;6.13;;;13.20;60.70;;;;;;5073637;28;20029;-73
2023/06/05 02:36:32;;;;;;;8.35;5.60;;;13.10;60.90;;;;;;5072641;28;20020;-73
2023/06/05 02:38:59;;;;;;;7.15;5.93;;;13.10;61.20;;;;;;5072294;28;20118;-73
2023/06/05 02:41:26;;;;;;;6.38;5.68;;;13.20;61.20;;;;;;5072542;28;20534;-73
2023/06/05 02:43:53;;;;;;;7.70;6.40;;;13.20;61.10;;;;;;5073605;28;20111;-73
2023/06/05 02:46:18;;;;;;;8.88;6.07;;;13.20;61.00;;;;;;5072446;28;20017;-73
2023/06/05 02:48:44;;;;;;;6.35;5.22;;;13.20;61.00;;;;;;5073246;28;20024;-73
2023/06/05 02:51:10;;;;;;;7.43;5.88;;;13.10;61.10;;;;;;5072125;28;20055;-73
2023/06/05 02:53:36;;;;;;;8.60;6.25;;;13.10;61.20;;;;;;5071957;28;20480;-73
2023/06/05 02:56:03;;;;;;;9.50;6.13;;;13.10;61.00;;;;;;5072353;28;20025;-73
2023/06/05 02:58:28;;;;;;;9.10;5.90;;;12.90;61.60;;;;;;5072316;28;20503;-73
2023/06/05 03:00:55;;;;;;;7.07;6.38;;;12.80;61.50;;;;;;5072276;28;20072;-73
2023/06/05 03:03:29;;;;;;;10.07;5.75;;;12.70;62.20;;;;;;5076771;28;20020;-73
2023/06/05 03:05:56;;;;;;;7.32;5.53;;;12.70;62.10;;;;;;5073796;28;20107;-73
2023/06/05 03:08:22;;;;;;;7.55;5.50;;;12.70;62.10;;;;;;5072168;28;20115;-72
2023/06/05 03:10:47;;;;;;;8.57;5.82;;;12.70;62.10;;;;;;5071999;28;20097;-72
2023/06/05 03:13:13;;;;;;;10.73;5.95;;;12.70;62.10;;;;;;5072008;28;20059;-74
2023/06/05 03:15:39;;;;;;;9.52;6.47;;;12.70;62.10;;;;;;5071943;28;20372;-73
2023/06/05 03:18:05;;;;;;;7.20;6.30;;;12.60;62.30;;;;;;5071735;28;20082;-74
2023/06/05 03:20:30;;;;;;;8.07;5.35;;;12.60;62.60;;;;;;5071683;28;20032;-74
2023/06/05 03:22:56;;;;;;;8.75;6.20;;;12.60;62.50;;;;;;5072920;28;20350;-73
2023/06/05 03:25:22;;;;;;;7.63;5.88;;;12.60;62.70;;;;;;5071773;28;20473;-74
2023/06/05 03:27:49;;;;;;;7.07;5.70;;;12.50;62.60;;;;;;5072941;28;20023;-73
2023/06/05 03:30:16;;;;;;;6.85;5.72;;;12.60;62.60;;;;;;5071919;28;20020;-75
2023/06/05 03:32:42;;;;;;;7.63;5.80;;;12.50;62.90;;;;;;5072852;28;20025;-75
2023/06/05 03:35:08;;;;;;;7.60;5.97;;;12.50;62.90;;;;;;5072560;28;20354;-74
2023/06/05 03:37:34;;;;;;;7.53;5.38;;;12.50;62.90;;;;;;5072738;28;20503;-73
2023/06/05 03:39:59;;;;;;;6.28;5.38;;;12.50;63.00;;;;;;5072455;28;20052;-73
2023/06/05 03:42:25;;;;;;;5.97;5.38;;;12.50;62.80;;;;;;5071637;28;20032;-74
2023/06/05 03:44:50;;;;;;;7.32;5.30;;;12.50;62.80;;;;;;5072799;28;20098;-73
2023/06/05 03:47:16;;;;;;;7.78;5.68;;;12.60;62.70;;;;;;5071333;28;20547;-73
2023/06/05 03:49:47;;;;;;;7.63;5.68;;;12.60;62.70;;;;;;5071101;28;20027;-73
2023/06/05 03:52:14;;;;;;;7.72;5.78;;;12.60;62.60;;;;;;5071521;28;20028;-73
2023/06/05 03:54:40;;;;;;;9.00;5.32;;;12.60;62.30;;;;;;5072569;28;20365;-74
2023/06/05 03:57:12;;;;;;;10.15;6.35;;;12.70;62.20;;;;;;5071480;28;20024;-73
2023/06/05 03:59:37;;;;;;;10.77;6.18;;;12.70;61.90;;;;;;5071196;28;20119;-73
2023/06/05 04:02:04;;;;;;;9.07;6.70;;;12.60;61.90;;;;;;5071078;28;20051;-74
2023/06/05 04:04:30;;;;;;;8.60;6.60;;;12.50;62.20;;;;;;5071171;28;20484;-73
2023/06/05 04:06:56;;;;;;;7.63;6.07;;;12.50;62.40;;;;;;5071636;28;20028;-74
2023/06/05 04:09:21;;;;;;;8.52;6.05;;;12.50;62.60;;;;;;5071279;28;20112;-73
2023/06/05 04:11:49;;;;;;;7.80;5.85;;;12.50;62.50;;;;;;5071118;28;20112;-73
2023/06/05 04:14:15;;;;;;;8.85;5.57;;;12.60;62.20;;;;;;5070783;28;20037;-72
2023/06/05 04:16:43;;;;;;;9.50;6.10;;;12.70;62.10;;;;;;5070959;28;20074;-72
2023/06/05 04:19:11;;;;;;;7.88;6.43;;;12.80;61.80;;;;;;5070707;28;20481;-73
2023/06/05 04:21:38;;;;;;;7.78;5.15;;;12.90;61.80;;;;;;5072342;28;20033;-72
2023/06/05 04:24:06;;;;;;;6.80;5.30;;;13.00;61.40;;;;;;5071228;28;20031;-73
2023/06/05 04:26:33;;;;;;;6.60;5.22;;;13.10;61.00;;;;;;5071223;28;20119;-73
2023/06/05 04:28:59;;;;;;;6.93;5.65;;;13.20;60.50;;;;;;5071193;28;20477;-72
2023/06/05 04:31:25;;;;;;;8.98;5.88;;;13.30;60.30;;;;;;5070846;28;20025;-72
2023/06/05 04:33:51;;;;;;;6.88;5.28;;;13.30;60.10;;;;;;5071376;28;20027;-72
2023/06/05 04:36:18;;;;;;;8.02;6.20;;;13.40;59.90;;;;;;5071192;28;20020;-73
2023/06/05 04:38:44;;;;;;;8.05;5.22;;;13.40;59.60;;;;;;5070720;28;20055;-73
2023/06/05 04:41:10;;;;;;;7.25;5.60;;;13.40;59.30;;;;;;5071047;28;20020;-73
2023/06/05 04:43:36;;;;;;;7.82;5.78;;;13.40;59.00;;;;;;5071134;28;20416;-73
2023/06/05 04:46:02;;;;;;;9.75;5.60;;;13.40;59.10;;;;;;5071814;28;20031;-72
2023/06/05 04:48:28;;;;;;;9.95;5.88;;;13.40;58.90;;;;;;5074665;28;20116;-73
2023/06/05 04:50:55;;;;;;;7.30;5.30;;;13.40;58.90;;;;;;5074621;28;20056;-73
2023/06/05 04:53:21;;;;;;;7.32;5.50;;;13.50;59.10;;;;;;5074475;28;20020;-73
2023/06/05 04:55:47;;;;;;;8.32;5.35;;;13.70;59.20;;;;;;5074498;28;20098;-73
2023/06/05 04:58:13;;;;;;;7.80;5.38;;;13.90;59.30;;;;;;5074449;28;20103;-73
2023/06/05 05:00:39;;;;;;;7.38;4.68;;;14.00;58.80;;;;;;5074134;28;20137;-73
2023/06/05 05:03:05;;;;;;;6.28;4.82;;;14.10;58.50;;;;;;5074290;28;20013;-73
2023/06/05 05:05:30;;;;;;;7.10;4.82;;;14.20;58.40;;;;;;5074210;28;20074;-73
2023/06/05 05:07:56;;;;;;;8.65;5.47;;;14.20;58.20;;;;;;5074134;28;20388;-72
2023/06/05 05:10:21;;;;;;;7.07;5.03;;;14.30;58.10;;;;;;5074440;28;20070;-72
2023/06/05 05:12:47;;;;;;;6.50;5.13;;;14.40;57.70;;;;;;5074380;28;20031;-74
2023/06/05 05:15:12;;;;;;;7.70;5.95;;;14.40;57.60;;;;;;5073889;28;20027;-73
2023/06/05 05:17:38;;;;;;;6.25;5.07;;;14.50;57.50;;;;;;5074066;28;20116;-74
2023/06/05 05:20:06;;;;;;;5.75;5.15;;;14.60;57.50;;;;;;5073969;28;20043;-73
2023/06/05 05:22:32;;;;;;;8.18;5.20;;;14.80;57.20;;;;;;5073605;28;20078;-73
2023/06/05 05:24:57;;;;;;;8.82;5.47;;;14.80;56.80;;;;;;5073716;28;20423;-74
2023/06/05 05:27:24;;;;;;;11.55;5.97;;;14.90;56.60;;;;;;5074917;28;20429;-73
2023/06/05 05:29:50;;;;;;;9.00;5.22;;;15.00;56.40;;;;;;5074827;28;20426;-74
2023/06/05 05:32:15;;;;;;;6.00;4.70;;;15.10;56.20;;;;;;5074862;28;20066;-74
2023/06/05 05:34:41;;;;;;;7.78;5.15;;;15.10;56.00;;;;;;5074905;28;20052;-73
2023/06/05 05:37:07;;;;;;;7.50;5.05;;;15.20;55.50;;;;;;5074838;28;20048;-73
2023/06/05 05:39:32;;;;;;;7.43;4.95;;;15.30;54.70;;;;;;5074616;28;20051;-74
2023/06/05 05:41:59;;;;;;;6.20;5.07;;;15.50;53.90;;;;;;5074745;28;20021;-73
2023/06/05 05:44:25;;;;;;;6.43;4.80;;;15.60;53.60;;;;;;5074761;28;20808;-73
2023/06/05 05:46:50;;;;;;;4.68;4.05;;;15.70;53.60;;;;;;5074702;28;20025;-74
2023/06/05 05:49:16;;;;;;;7.32;5.00;;;15.90;53.10;;;;;;5074498;28;20028;-74
2023/06/05 05:51:41;;;;;;;10.00;5.50;;;16.00;52.40;;;;;;5074590;28;20028;-74
2023/06/05 05:54:07;;;;;;;7.38;5.38;;;16.10;52.00;;;;;;5074345;28;20487;-73
2023/06/05 05:56:34;;;;;;;7.75;5.07;;;16.30;51.80;;;;;;5074279;28;20025;-73
2023/06/05 05:58:59;;;;;;;6.13;4.95;;;16.40;51.60;;;;;;5072639;28;20036;-74
2023/06/05 06:01:25;;;;;;;7.10;5.05;;;16.50;52.00;;;;;;5074171;28;20105;-74
2023/06/05 06:03:51;;;;;;;11.30;6.82;;;16.50;52.00;;;;;;5074131;28;20029;-74
2023/06/05 06:06:17;;;;;;;9.13;5.55;;;16.50;51.60;;;;;;5074031;28;20423;-75
2023/06/05 06:08:42;;;;;;;7.05;5.28;;;16.50;51.70;;;;;;5074076;28;20462;-74
2023/06/05 06:11:09;;;;;;;8.13;5.40;;;16.70;51.50;;;;;;5073795;28;20466;-74
2023/06/05 06:13:34;;;;;;;6.90;5.10;;;16.80;51.00;;;;;;5073591;28;20019;-74
2023/06/05 06:16:01;;;;;;;9.52;5.47;;;16.90;49.60;;;;;;5072578;28;20123;-74
2023/06/05 06:18:27;;;;;;;5.53;4.70;;;16.90;49.00;;;;;;5073887;28;20016;-74
2023/06/05 06:20:53;;;;;;;5.90;4.30;;;16.90;48.90;;;;;;5073921;28;20036;-74
2023/06/05 06:23:18;;;;;;;10.70;5.30;;;17.00;48.10;;;;;;5073808;28;20016;-75
2023/06/05 06:25:44;;;;;;;6.50;3.95;;;17.00;47.60;;;;;;5073673;28;20039;-75
2023/06/05 06:28:10;;;;;;;6.47;4.05;;;17.00;48.10;;;;;;5073729;28;20093;-74
2023/06/05 06:30:36;;;;;;;7.75;4.03;;;17.10;47.70;;;;;;5073675;28;20033;-75
2023/06/05 06:33:04;;;;;;;12.18;4.95;;;17.20;46.60;;;;;;5073482;28;20016;-75
2023/06/05 06:35:31;;;;;;;5.97;4.22;;;17.30;46.50;;;;;;5073544;28;20039;-75
2023/06/05 06:37:58;;;;;;;8.57;4.30;;;17.40;46.60;;;;;;5073107;28;20130;-74
2023/06/05 06:40:24;;;;;;;11.55;5.65;;;17.40;45.40;;;;;;5071931;28;20029;-75
2023/06/05 06:42:53;;;;;;;8.90;4.32;;;17.30;45.80;;;;;;5073200;28;20091;-74
2023/06/05 06:45:18;;;;;;;7.95;4.93;;;17.40;45.80;;;;;;5073321;28;20186;-75
2023/06/05 06:47:44;;;;;;;9.38;5.20;;;17.40;44.90;;;;;;5073214;28;20528;-74
2023/06/05 06:50:10;;;;;;;8.85;4.72;;;17.50;44.90;;;;;;5073122;28;20024;-75
2023/06/05 06:52:35;;;;;;;8.82;4.10;;;17.70;44.90;;;;;;5073062;28;20478;-75
2023/06/05 06:55:01;;;;;;;7.63;4.35;;;17.80;44.00;;;;;;5073100;28;20032;-75
2023/06/05 06:57:27;;;;;;;6.10;4.15;;;17.90;43.80;;;;;;5072919;28;20111;-76
2023/06/05 06:59:53;;;;;;;21.63;5.30;;;17.90;43.30;;;;;;5072789;28;20033;-79
2023/06/05 07:02:20;;;;;;;8.65;3.70;;;18.30;55.50;;;;;;5072848;28;20095;-79
2023/06/05 07:04:47;;;;;;;8.75;4.13;;;18.60;51.70;;;;;;5072691;28;20396;-79
2023/06/05 07:07:16;;;;;;;5.82;3.78;;;18.80;44.10;;;;;;5072935;28;20035;-79
2023/06/05 07:09:45;;;;;;;8.20;4.20;;;18.80;45.40;;;;;;5072330;28;20119;-78
2023/06/05 07:12:13;;;;;;;8.20;4.53;;;19.00;44.50;;;;;;5072775;28;20031;-77
2023/06/05 07:14:40;;;;;;;8.43;4.35;;;19.20;43.20;;;;;;5072803;28;20074;-77
2023/06/05 07:17:06;;;;;;;6.95;4.30;;;19.40;43.90;;;;;;5072660;28;20098;-78
2023/06/05 07:19:32;;;;;;;7.65;4.20;;;19.60;43.20;;;;;;5072622;28;20039;-79
2023/06/05 07:22:01;;;;;;;7.28;4.75;;;19.70;43.80;;;;;;5072890;28;20020;-78
2023/06/05 07:24:28;;;;;;;8.25;4.93;;;19.90;42.70;;;;;;5072868;28;20020;-80
2023/06/05 07:26:56;;;;;;;8.55;3.90;;;19.60;43.00;;;;;;5072912;28;20481;-76
2023/06/05 07:29:23;;;;;;;15.38;4.72;;;19.70;42.60;;;;;;5071733;28;20085;-77
2023/06/05 07:31:50;;;;;;;8.32;3.92;;;19.90;42.90;;;;;;5072759;28;20056;-75
2023/06/05 07:34:18;;;;;;;8.10;3.78;;;20.00;41.90;;;;;;5072736;28;20031;-76
2023/06/05 07:36:45;;;;;;;6.97;3.78;;;20.20;40.60;;;;;;5072895;28;20021;-78
2023/06/05 07:39:11;;;;;;;5.43;3.50;;;20.20;40.90;;;;;;5072381;28;20517;-76
2023/06/05 07:41:38;;;;;;;6.38;4.10;;;20.40;40.30;;;;;;5072457;28;20460;-76
2023/06/05 07:44:03;;;;;;;6.18;3.65;;;20.50;39.60;;;;;;5072355;28;20021;-78
2023/06/05 07:46:29;;;;;;;7.40;4.00;;;20.60;38.80;;;;;;5072771;28;20108;-74
2023/06/05 07:48:55;;;;;;;8.35;4.10;;;20.40;39.00;;;;;;5072517;28;20484;-75
2023/06/05 07:51:20;;;;;;;6.28;3.80;;;20.40;40.00;;;;;;5072484;28;20099;-76
2023/06/05 07:53:46;;;;;;;8.00;4.47;;;20.60;39.80;;;;;;5072638;28;20020;-76
2023/06/05 07:56:18;;;;;;;7.55;3.90;;;20.40;40.50;;;;;;5072549;28;20025;-76
2023/06/05 07:58:43;;;;;;;5.50;3.83;;;20.50;40.20;;;;;;5072317;28;20024;-76
2023/06/05 08:01:11;;;;;;;5.75;4.03;;;20.40;40.70;;;;;;5072257;28;20055;-76
2023/06/05 08:03:37;;;;;;;5.13;3.42;;;20.20;41.40;;;;;;5071680;28;20023;-76
2023/06/05 08:06:03;;;;;;;5.40;3.90;;;20.10;41.80;;;;;;5071265;28;20107;-76
2023/06/05 08:08:29;;;;;;;7.05;3.63;;;20.10;42.00;;;;;;5072526;28;20051;-76
2023/06/05 08:10:55;;;;;;;5.63;3.95;;;20.30;42.40;;;;;;5076120;28;20025;-76
2023/06/05 08:13:21;;;;;;;5.68;3.50;;;20.50;41.90;;;;;;5072670;28;20020;-76
2023/06/05 08:15:46;;;;;;;8.60;4.22;;;20.50;41.60;;;;;;5072386;28;20422;-76
2023/06/05 08:18:12;;;;;;;6.07;4.10;;;20.40;41.60;;;;;;5072436;28;20025;-77
2023/06/05 08:20:37;;;;;;;6.88;3.97;;;20.30;41.80;;;;;;5071151;28;20063;-77
2023/06/05 08:23:05;;;;;;;7.88;4.30;;;20.30;42.50;;;;;;5075586;28;20073;-76
2023/06/05 08:25:31;;;;;;;11.93;4.10;;;20.10;43.30;;;;;;5076055;28;20106;-77
2023/06/05 08:27:56;;;;;;;7.40;4.05;;;20.30;43.90;;;;;;5075552;28;20473;-77
2023/06/05 08:30:22;;;;;;;9.52;4.90;;;20.60;43.60;;;;;;5075696;28;20025;-79
2023/06/05 08:32:47;;;;;;;8.93;4.88;;;20.90;43.60;;;;;;5076092;28;20121;-77
2023/06/05 08:35:13;;;;;;;9.02;4.50;;;20.70;43.40;;;;;;5075896;28;20037;-77
2023/06/05 08:37:40;;;;;;;6.85;4.75;;;20.40;44.30;;;;;;5075584;28;20020;-77
2023/06/05 08:40:07;;;;;;;6.22;4.15;;;20.10;46.00;;;;;;5075645;28;20043;-76
2023/06/05 08:42:33;;;;;;;10.05;4.15;;;20.10;46.00;;;;;;5075806;28;20013;-76
2023/06/05 08:44:58;;;;;;;5.32;4.07;;;20.20;45.80;;;;;;5075628;28;20028;-75
2023/06/05 08:47:28;;;;;;;7.97;4.25;;;20.00;45.90;;;;;;5075301;28;20437;-76
2023/06/05 08:49:54;;;;;;;8.85;3.95;;;20.20;46.70;;;;;;5074247;28;20029;-76
2023/06/05 08:52:22;;;;;;;10.23;4.88;;;20.40;46.00;;;;;;5075435;28;20021;-75
2023/06/05 08:54:49;;;;;;;7.63;3.67;;;20.70;45.20;;;;;;5075101;28;20024;-76
2023/06/05 08:57:15;;;;;;;9.52;5.10;;;21.00;44.60;;;;;;5075438;28;20055;-77
2023/06/05 08:59:43;;;;;;;7.10;4.78;;;21.20;44.60;;;;;;5075302;28;20041;-76
2023/06/05 09:02:09;;;;;;;7.05;4.30;;;21.30;44.90;;;;;;5075220;28;20086;-76
2023/06/05 09:04:35;;;;;;;7.20;4.20;;;21.50;45.00;;;;;;5073720;28;20498;-75
2023/06/05 09:07:01;;;;;;;11.05;5.18;;;21.60;45.10;;;;;;5075472;28;20111;-76
2023/06/05 09:09:27;;;;;;;6.72;4.70;;;21.70;44.50;;;;;;5075429;28;20074;-75
2023/06/05 09:12:07;;;;;;;7.68;4.60;;;21.90;44.50;;;;;;5075234;28;20027;-76
2023/06/05 09:14:33;;;;;;;8.15;4.32;;;22.00;43.00;;;;;;5074666;28;20032;-75
2023/06/05 09:17:02;;;;;;;7.68;4.80;;;21.90;43.30;;;;;;5075025;28;20043;-74
2023/06/05 09:19:39;;;;;;;9.25;6.00;;;21.70;43.30;;;;;;5074755;28;20523;-76
2023/06/05 09:22:07;;;;;;;6.25;4.22;;;21.50;44.30;;;;;;5073564;28;20035;-76
2023/06/05 09:24:33;;;;;;;6.43;4.03;;;21.70;44.40;;;;;;5082473;28;20473;-76
2023/06/05 09:26:58;;;;;;;5.93;3.97;;;22.10;43.80;;;;;;5085011;28;20024;-76
2023/06/05 09:29:27;;;;;;;7.38;5.43;;;22.40;43.00;;;;;;5084339;28;20022;-77
2023/06/05 09:31:54;;;;;;;6.25;4.05;;;22.60;42.80;;;;;;5080999;28;20023;-76
2023/06/05 09:34:32;;;;;;;8.95;4.03;;;22.80;42.60;;;;;;5084866;28;20023;-75
2023/06/05 09:36:59;;;;;;;6.55;4.80;;;23.10;41.90;;;;;;5082140;28;20100;-76
2023/06/05 09:39:27;;;;;;;8.77;4.97;;;23.30;42.00;;;;;;5083176;28;20047;-76
2023/06/05 09:41:54;;;;;;;5.75;4.50;;;23.40;40.90;;;;;;5077079;28;20086;-75
2023/06/05 09:44:20;;;;;;;8.10;4.47;;;23.40;40.90;;;;;;5083994;28;20020;-75
2023/06/05 09:46:56;;;;;;;5.50;4.13;;;23.50;40.80;;;;;;5083914;28;20095;-76
2023/06/05 09:49:25;;;;;;;6.68;4.18;;;23.60;40.30;;;;;;5079678;28;20489;-75
2023/06/05 09:51:51;;;;;;;8.18;5.07;;;23.90;39.60;;;;;;5083021;28;20492;-76
2023/06/05 09:54:19;;;;;;;6.03;4.38;;;23.90;38.80;;;;;;5083220;28;20017;-76
2023/06/05 09:56:50;;;;;;;6.50;4.82;;;24.00;38.70;;;;;;5083688;28;20023;-75
2023/06/05 09:59:22;;;;;;;10.88;5.55;;;23.90;38.10;;;;;;5079936;28;20054;-76
2023/06/05 10:01:52;;;;;;;8.95;5.13;;;23.70;38.90;;;;;;5085752;28;20107;-76
2023/06/05 10:04:27;;;;;;;9.70;5.57;;;23.70;39.70;;;;;;5080963;28;20040;-76
2023/06/05 10:06:57;;;;;;;10.23;5.22;;;23.90;39.40;;;;;;5082755;28;20056;-76
2023/06/05 10:09:24;;;;;;;6.13;4.80;;;23.80;39.10;;;;;;5084232;28;20035;-76
2023/06/05 10:11:50;;;;;;;5.25;4.22;;;23.70;39.70;;;;;;5080880;28;20519;-75
2023/06/05 10:14:16;;;;;;;7.38;5.30;;;23.80;39.80;;;;;;5084461;28;20024;-76
2023/06/05 10:16:43;;;;;;;9.70;5.53;;;23.70;40.00;;;;;;5083909;28;20528;-75
2023/06/05 10:19:09;;;;;;;11.95;5.50;;;23.70;40.30;;;;;;5082790;28;20135;-75
2023/06/05 10:21:36;;;;;;;10.13;5.15;;;23.90;39.70;;;;;;5080078;28;20017;-76
2023/06/05 10:24:08;;;;;;;9.93;5.50;;;24.00;39.60;;;;;;5084260;28;20020;-76
2023/06/05 10:26:46;;;;;;;8.32;5.13;;;24.30;39.50;;;;;;5081013;28;20048;-75
2023/06/05 10:29:53;;;;;;;9.98;4.30;;;24.50;38.30;;;;;;5082877;28;20020;-76
2023/06/05 10:32:29;;;;;;;7.03;5.07;;;24.80;38.00;;;;;;5074616;28;20029;-76
2023/06/05 10:35:22;;;;;;;5.97;4.35;;;25.30;36.60;;;;;;5084231;28;20032;-76
2023/06/05 10:38:24;;;;;;;7.10;4.60;;;25.60;36.00;;;;;;5083617;28;20027;-76
2023/06/05 10:40:58;;;;;;;7.88;4.90;;;25.80;34.80;;;;;;5092484;28;20059;-74
2023/06/05 10:43:26;;;;;;;11.50;5.40;;;25.80;35.10;;;;;;5092278;28;20013;-76
2023/06/05 10:45:53;;;;;;;11.13;5.53;;;25.40;35.50;;;;;;5091832;28;20024;-75
2023/06/05 10:48:19;;;;;;;6.22;5.07;;;25.40;36.20;;;;;;5093041;28;20034;-75
2023/06/05 10:50:44;;;;;;;6.45;4.53;;;25.40;36.50;;;;;;5092523;28;20111;-75
2023/06/05 10:53:47;;;;;;;9.88;6.03;;;25.60;36.40;;;;;;5092962;28;20034;-75
2023/06/05 10:56:50;;;;;;;6.53;5.68;;;25.30;36.30;;;;;;5093308;28;20016;-76
2023/06/05 10:59:17;;;;;;;6.78;4.68;;;25.40;36.60;;;;;;5093052;28;20463;-75
2023/06/05 11:01:43;;;;;;;7.13;4.70;;;25.40;36.60;;;;;;5093142;28;20111;-74
2023/06/05 11:04:09;;;;;;;11.52;5.03;;;25.40;36.60;;;;;;5092884;28;20445;-73
2023/06/05 11:06:37;;;;;;;8.57;5.32;;;25.20;37.10;;;;;;5093255;28;20027;-73
2023/06/05 11:09:14;;;;;;;5.45;4.85;;;24.90;37.70;;;;;;5093220;28;20024;-73
2023/06/05 11:11:57;;;;;;;9.85;4.93;;;24.90;38.00;;;;;;5092956;28;20024;-73
2023/06/05 11:14:23;;;;;;;10.30;4.85;;;24.90;38.60;;;;;;5092728;28;20017;-72
2023/06/05 11:16:49;;;;;;;7.28;4.95;;;24.80;37.80;;;;;;5093125;28;20020;-74
2023/06/05 11:19:20;;;;;;;7.85;4.72;;;24.60;38.10;;;;;;5093029;28;20181;-73
2023/06/05 11:22:09;;;;;;;6.85;4.90;;;24.40;38.60;;;;;;5092905;28;20107;-72
2023/06/05 11:24:36;;;;;;;6.70;5.20;;;24.50;39.50;;;;;;5092941;28;20038;-72
2023/06/05 11:27:03;;;;;;;6.78;5.18;;;24.50;39.10;;;;;;5092515;28;20491;-72
2023/06/05 11:29:29;;;;;;;7.50;4.97;;;24.30;39.00;;;;;;5092989;28;20027;-72
2023/06/05 11:31:55;;;;;;;6.63;4.80;;;24.20;39.10;;;;;;5092680;28;20028;-73
2023/06/05 11:34:21;;;;;;;6.47;4.70;;;24.10;39.50;;;;;;5092100;28;20426;-73
2023/06/05 11:36:47;;;;;;;8.05;5.13;;;24.20;39.60;;;;;;5072828;28;20032;-76
2023/06/05 11:39:13;;;;;;;6.97;4.88;;;24.50;39.20;;;;;;5071991;28;20520;-72
2023/06/05 11:41:47;;;;;;;8.32;4.43;;;25.00;38.40;;;;;;5070858;28;20078;-72
2023/06/05 11:44:13;;;;;;;8.05;5.03;;;25.50;37.30;;;;;;5072299;28;20107;-74
2023/06/05 11:46:41;;;;;;;6.82;4.93;;;26.00;37.20;;;;;;5072203;28;20035;-71
2023/06/05 11:49:10;;;;;;;9.43;5.32;;;26.40;35.00;;;;;;5072278;28;20020;-75
2023/06/05 11:51:36;;;;;;;8.32;5.07;;;26.70;34.60;;;;;;5072122;28;20082;-75
2023/06/05 11:54:04;;;;;;;7.53;4.82;;;26.80;34.10;;;;;;5072531;28;20028;-71
2023/06/05 11:56:32;;;;;;;7.10;5.20;;;26.50;34.30;;;;;;5075978;28;20031;-75
2023/06/05 11:58:58;;;;;;;9.88;4.82;;;25.90;34.70;;;;;;5076177;28;20040;-75
2023/06/05 12:01:31;;;;;;;6.53;4.63;;;25.60;35.70;;;;;;5076589;28;20031;-75
2023/06/05 12:04:07;;;;;;;9.52;4.65;;;25.50;35.80;;;;;;5076510;28;20047;-76
2023/06/05 12:06:43;;;;;;;5.65;4.28;;;25.30;36.10;;;;;;5076447;28;20035;-74
2023/06/05 12:09:14;;;;;;;6.20;4.50;;;25.10;36.60;;;;;;5076402;28;20385;-73
2023/06/05 12:11:40;;;;;;;6.97;5.05;;;25.00;37.20;;;;;;5076257;28;20103;-73
2023/06/05 12:14:06;;;;;;;7.28;4.80;;;24.90;37.30;;;;;;5076261;28;20560;-72
2023/06/05 12:16:44;;;;;;;10.82;5.55;;;25.00;36.90;;;;;;5075854;28;20054;-72
2023/06/05 12:19:16;;;;;;;8.63;4.63;;;25.00;36.30;;;;;;5076018;28;20032;-72
2023/06/05 12:21:43;;;;;;;7.30;4.82;;;25.00;36.40;;;;;;5076187;28;20060;-73
2023/06/05 12:24:09;;;;;;;6.30;4.40;;;25.20;36.20;;;;;;5076944;28;20103;-72
2023/06/05 12:26:55;;;;;;;10.48;4.82;;;25.40;35.20;;;;;;5076020;28;20100;-73
2023/06/05 12:29:29;;;;;;;6.50;4.15;;;25.60;34.80;;;;;;5076280;28;20488;-72
2023/06/05 12:31:57;;;;;;;8.15;4.65;;;25.80;34.30;;;;;;5075410;28;20032;-73
2023/06/05 12:34:47;;;;;;;6.78;5.03;;;25.70;34.10;;;;;;5075962;28;20024;-73
2023/06/05 12:37:31;;;;;;;9.18;4.22;;;25.50;34.30;;;;;;5078069;28;20017;-72
2023/06/05 12:39:58;;;;;;;5.45;4.38;;;25.30;34.80;;;;;;5075303;28;20052;-73
2023/06/05 12:42:24;;;;;;;9.18;4.80;;;25.20;34.90;;;;;;5075791;28;20457;-73
2023/06/05 12:44:50;;;;;;;9.90;4.32;;;25.00;35.00;;;;;;5075518;28;20040;-72
2023/06/05 12:47:15;;;;;;;5.25;4.35;;;25.00;35.40;;;;;;5075353;28;20036;-72
2023/06/05 12:49:41;;;;;;;7.95;4.82;;;25.00;35.80;;;;;;5075273;28;20074;-75